sensor_id;sensor_type;location;lat;lon;timestamp;P1;durP1;ratioP1;P2;durP2;ratioP2
18383;SDS011;9318;48.644;9.456;2023-06-01T00:02:08;1.00;;;1.00;;
18383;SDS011;9318;48.644;9.456;2023-06-01T00:04:37;0.90;;;0.90;;
18383;SDS011;9318;48.644;9.456;2023-06-01T00:07:07;0.97;;;0.97;;
18383;SDS011;9318;48.644;9.456;2023-06-01T00:09:34;0.90;;;0.90;;
18383;SDS011;9318;48.644;9.456;2023-06-01T00:12:00;1.00;;;1.00;;
18383;SDS011;9318;48.644;9.456;2023-06-01T00:14:28;0.90;;;0.90;;
18383;SDS011;9318;48.644;9.456;2023-06-01T00:16:55;0.90;;;0.90;;
18383;SDS011;9318;48.644;9.456;2023-06-01T00:19:22;0.90;;;0.90;;
18383;SDS011;9318;48.644;9.456;2023-06-01T00:21:51;0.93;;;0.93;;
18383;SDS011;9318;48.644;9.456;2023-06-01T00:24:19;0.80;;;0.80;;
18383;SDS011;9318;48.644;9.456;2023-06-01T00:26:46;0.90;;;0.90;;
18383;SDS011;9318;48.644;9.456;2023-06-01T00:29:13;1.00;;;1.00;;
18383;SDS011;9318;48.644;9.456;2023-06-01T00:31:40;0.90;;;0.90;;
18383;SDS011;9318;48.644;9.456;2023-06-01T00:34:07;1.00;;;1.00;;
18383;SDS011;9318;48.644;9.456;2023-06-01T00:36:34;1.00;;;1.00;;
18383;SDS011;9318;48.644;9.456;2023-06-01T00:39:01;0.90;;;0.90;;
18383;SDS011;9318;48.644;9.456;2023-06-01T00:41:30;1.00;;;1.00;;
18383;SDS011;9318;48.644;9.456;2023-06-01T00:43:57;1.00;;;1.00;;
18383;SDS011;9318;48.644;9.456;2023-06-01T00:46:24;0.90;;;0.90;;
18383;SDS011;9318;48.644;9.456;2023-06-01T00:48:52;1.00;;;1.00;;
18383;SDS011;9318;48.644;9.456;2023-06-01T00:51:19;1.00;;;1.00;;
18383;SDS011;9318;48.644;9.456;2023-06-01T00:53:46;1.10;;;1.10;;
18383;SDS011;9318;48.644;9.456;2023-06-01T00:56:13;1.00;;;1.00;;
18383;SDS011;9318;48.644;9.456;2023-06-01T00:58:42;1.03;;;1.03;;
18383;SDS011;9318;48.644;9.456;2023-06-01T01:01:09;0.90;;;0.90;;
18383;SDS011;9318;48.644;9.456;2023-06-01T01:03:43;1.00;;;1.00;;
18383;SDS011;9318;48.644;9.456;2023-06-01T01:06:24;1.10;;;1.10;;
18383;SDS011;9318;48.644;9.456;2023-06-01T01:08:58;1.00;;;1.00;;
18383;SDS011;9318;48.644;9.456;2023-06-01T01:11:36;1.00;;;1.00;;
18383;SDS011;9318;48.644;9.456;2023-06-01T01:14:08;1.00;;;1.00;;
18383;SDS011;9318;48.644;9.456;2023-06-01T01:16:42;1.00;;;1.00;;
18383;SDS011;9318;48.644;9.456;2023-06-01T01:19:17;1.00;;;1.00;;
18383;SDS011;9318;48.644;9.456;2023-06-01T01:22:01;1.10;;;1.10;;
18383;SDS011;9318;48.644;9.456;2023-06-01T01:24:38;1.07;;;1.07;;
18383;SDS011;9318;48.644;9.456;2023-06-01T01:27:14;0.97;;;0.97;;
18383;SDS011;9318;48.644;9.456;2023-06-01T01:29:52;1.00;;;1.00;;
18383;SDS011;9318;48.644;9.456;2023-06-01T01:32:20;1.00;;;1.00;;
18383;SDS011;9318;48.644;9.456;2023-06-01T01:34:49;1.00;;;1.00;;
18383;SDS011;9318;48.644;9.456;2023-06-01T01:37:17;1.00;;;1.00;;
18383;SDS011;9318;48.644;9.456;2023-06-01T01:39:44;1.10;;;1.10;;
18383;SDS011;9318;48.644;9.456;2023-06-01T01:42:10;1.00;;;1.00;;
18383;SDS011;9318;48.644;9.456;2023-06-01T01:44:37;1.00;;;1.00;;
18383;SDS011;9318;48.644;9.456;2023-06-01T01:47:07;1.00;;;1.00;;
18383;SDS011;9318;48.644;9.456;2023-06-01T01:49:40;1.00;;;1.00;;
18383;SDS011;9318;48.644;9.456;2023-06-01T01:52:10;1.00;;;1.00;;
18383;SDS011;9318;48.644;9.456;2023-06-01T01:54:41;1.00;;;1.00;;
18383;SDS011;9318;48.644;9.456;2023-06-01T01:57:09;1.10;;;1.10;;
18383;SDS011;9318;48.644;9.456;2023-06-01T01:59:39;1.20;;;1.20;;
18383;SDS011;9318;48.644;9.456;2023-06-01T02:02:09;1.10;;;1.10;;
18383;SDS011;9318;48.644;9.456;2023-06-01T02:04:37;0.90;;;0.90;;
18383;SDS011;9318;48.644;9.456;2023-06-01T02:07:05;1.00;;;1.00;;
18383;SDS011;9318;48.644;9.456;2023-06-01T02:09:32;1.10;;;1.10;;
18383;SDS011;9318;48.644;9.456;2023-06-01T02:11:58;1.00;;;1.00;;
18383;SDS011;9318;48.644;9.456;2023-06-01T02:14:27;1.07;;;1.07;;
18383;SDS011;9318;48.644;9.456;2023-06-01T02:16:53;1.07;;;1.07;;
18383;SDS011;9318;48.644;9.456;2023-06-01T02:19:22;1.10;;;1.10;;
18383;SDS011;9318;48.644;9.456;2023-06-01T02:21:48;1.10;;;1.10;;
18383;SDS011;9318;48.644;9.456;2023-06-01T02:24:15;1.07;;;1.07;;
18383;SDS011;9318;48.644;9.456;2023-06-01T02:26:42;0.90;;;0.90;;
18383;SDS011;9318;48.644;9.456;2023-06-01T02:29:09;1.00;;;1.00;;
18383;SDS011;9318;48.644;9.456;2023-06-01T02:31:36;1.10;;;1.10;;
18383;SDS011;9318;48.644;9.456;2023-06-01T02:34:02;1.10;;;1.10;;
18383;SDS011;9318;48.644;9.456;2023-06-01T02:36:31;1.00;;;1.00;;
18383;SDS011;9318;48.644;9.456;2023-06-01T02:38:58;1.00;;;1.00;;
18383;SDS011;9318;48.644;9.456;2023-06-01T02:41:25;1.00;;;1.00;;
18383;SDS011;9318;48.644;9.456;2023-06-01T02:43:52;1.10;;;1.10;;
18383;SDS011;9318;48.644;9.456;2023-06-01T02:46:18;1.10;;;1.10;;
18383;SDS011;9318;48.644;9.456;2023-06-01T02:48:45;0.97;;;0.97;;
18383;SDS011;9318;48.644;9.456;2023-06-01T02:51:12;1.00;;;1.00;;
18383;SDS011;9318;48.644;9.456;2023-06-01T02:53:40;1.00;;;1.00;;
18383;SDS011;9318;48.644;9.456;2023-06-01T02:56:08;1.10;;;1.10;;
18383;SDS011;9318;48.644;9.456;2023-06-01T02:58:35;1.10;;;1.10;;
18383;SDS011;9318;48.644;9.456;2023-06-01T03:01:02;1.10;;;1.10;;
18383;SDS011;9318;48.644;9.456;2023-06-01T03:03:29;1.00;;;1.00;;
18383;SDS011;9318;48.644;9.456;2023-06-01T03:05:56;1.00;;;1.00;;
18383;SDS011;9318;48.644;9.456;2023-06-01T03:08:23;1.00;;;1.00;;
18383;SDS011;9318;48.644;9.456;2023-06-01T03:10:52;1.00;;;1.00;;
18383;SDS011;9318;48.644;9.456;2023-06-01T03:13:19;1.00;;;1.00;;
18383;SDS011;9318;48.644;9.456;2023-06-01T03:15:46;1.10;;;1.10;;
18383;SDS011;9318;48.644;9.456;2023-06-01T03:18:13;1.10;;;1.10;;
18383;SDS011;9318;48.644;9.456;2023-06-01T03:20:40;1.10;;;1.10;;
18383;SDS011;9318;48.644;9.456;2023-06-01T03:23:07;1.03;;;1.03;;
18383;SDS011;9318;48.644;9.456;2023-06-01T03:25:34;1.00;;;1.00;;
18383;SDS011;9318;48.644;9.456;2023-06-01T03:28:02;1.10;;;1.10;;
18383;SDS011;9318;48.644;9.456;2023-06-01T03:30:29;1.00;;;1.00;;
18383;SDS011;9318;48.644;9.456;2023-06-01T03:32:56;1.10;;;1.10;;
18383;SDS011;9318;48.644;9.456;2023-06-01T03:35:23;1.00;;;1.00;;
18383;SDS011;9318;48.644;9.456;2023-06-01T03:37:49;1.10;;;1.10;;
18383;SDS011;9318;48.644;9.456;2023-06-01T03:40:16;1.00;;;1.00;;
18383;SDS011;9318;48.644;9.456;2023-06-01T03:42:43;1.17;;;1.17;;
18383;SDS011;9318;48.644;9.456;2023-06-01T03:45:13;1.10;;;1.10;;
18383;SDS011;9318;48.644;9.456;2023-06-01T03:47:40;1.00;;;1.00;;
18383;SDS011;9318;48.644;9.456;2023-06-01T03:50:08;1.10;;;1.10;;
18383;SDS011;9318;48.644;9.456;2023-06-01T03:52:35;1.00;;;1.00;;
18383;SDS011;9318;48.644;9.456;2023-06-01T03:55:03;1.00;;;1.00;;
18383;SDS011;9318;48.644;9.456;2023-06-01T03:57:33;1.00;;;1.00;;
18383;SDS011;9318;48.644;9.456;2023-06-01T04:00:00;1.00;;;1.00;;
18383;SDS011;9318;48.644;9.456;2023-06-01T04:02:45;1.10;;;1.10;;
18383;SDS011;9318;48.644;9.456;2023-06-01T04:05:14;1.10;;;1.10;;
18383;SDS011;9318;48.644;9.456;2023-06-01T04:07:42;1.00;;;1.00;;
18383;SDS011;9318;48.644;9.456;2023-06-01T04:10:10;1.07;;;1.07;;
18383;SDS011;9318;48.644;9.456;2023-06-01T04:12:38;1.00;;;1.00;;
18383;SDS011;9318;48.644;9.456;2023-06-01T04:15:06;1.00;;;1.00;;
18383;SDS011;9318;48.644;9.456;2023-06-01T04:17:35;0.90;;;0.90;;
18383;SDS011;9318;48.644;9.456;2023-06-01T04:20:03;1.00;;;1.00;;
18383;SDS011;9318;48.644;9.456;2023-06-01T04:22:32;1.00;;;1.00;;
18383;SDS011;9318;48.644;9.456;2023-06-01T04:24:59;0.90;;;0.90;;
18383;SDS011;9318;48.644;9.456;2023-06-01T04:27:26;1.10;;;1.10;;
18383;SDS011;9318;48.644;9.456;2023-06-01T04:29:53;1.00;;;1.00;;
18383;SDS011;9318;48.644;9.456;2023-06-01T04:32:24;1.00;;;1.00;;
18383;SDS011;9318;48.644;9.456;2023-06-01T04:34:52;1.00;;;1.00;;
18383;SDS011;9318;48.644;9.456;2023-06-01T04:37:23;1.00;;;1.00;;
18383;SDS011;9318;48.644;9.456;2023-06-01T04:39:51;1.00;;;1.00;;
18383;SDS011;9318;48.644;9.456;2023-06-01T04:42:17;1.00;;;1.00;;
18383;SDS011;9318;48.644;9.456;2023-06-01T04:44:44;1.00;;;1.00;;
18383;SDS011;9318;48.644;9.456;2023-06-01T04:47:14;1.00;;;1.00;;
18383;SDS011;9318;48.644;9.456;2023-06-01T04:49:42;1.00;;;1.00;;
18383;SDS011;9318;48.644;9.456;2023-06-01T04:52:09;0.90;;;0.90;;
18383;SDS011;9318;48.644;9.456;2023-06-01T04:54:38;0.80;;;0.80;;
18383;SDS011;9318;48.644;9.456;2023-06-01T04:57:05;0.90;;;0.90;;
18383;SDS011;9318;48.644;9.456;2023-06-01T04:59:32;0.80;;;0.80;;
18383;SDS011;9318;48.644;9.456;2023-06-01T05:01:59;1.00;;;1.00;;
18383;SDS011;9318;48.644;9.456;2023-06-01T05:04:26;0.80;;;0.80;;
18383;SDS011;9318;48.644;9.456;2023-06-01T05:06:53;0.90;;;0.90;;
18383;SDS011;9318;48.644;9.456;2023-06-01T05:09:19;0.80;;;0.80;;
18383;SDS011;9318;48.644;9.456;2023-06-01T05:11:47;0.80;;;0.80;;
18383;SDS011;9318;48.644;9.456;2023-06-01T05:14:14;0.70;;;0.70;;
18383;SDS011;9318;48.644;9.456;2023-06-01T05:16:41;0.70;;;0.70;;
18383;SDS011;9318;48.644;9.456;2023-06-01T05:19:08;0.63;;;0.63;;
18383;SDS011;9318;48.644;9.456;2023-06-01T05:21:34;0.70;;;0.70;;
18383;SDS011;9318;48.644;9.456;2023-06-01T05:24:01;0.60;;;0.60;;
18383;SDS011;9318;48.644;9.456;2023-06-01T05:26:28;0.60;;;0.60;;
18383;SDS011;9318;48.644;9.456;2023-06-01T05:28:56;0.70;;;0.70;;
18383;SDS011;9318;48.644;9.456;2023-06-01T05:31:23;0.70;;;0.70;;
18383;SDS011;9318;48.644;9.456;2023-06-01T05:33:50;0.60;;;0.60;;
18383;SDS011;9318;48.644;9.456;2023-06-01T05:36:17;0.65;;;0.65;;
18383;SDS011;9318;48.644;9.456;2023-06-01T05:38:43;0.70;;;0.70;;
18383;SDS011;9318;48.644;9.456;2023-06-01T05:41:11;0.70;;;0.70;;
18383;SDS011;9318;48.644;9.456;2023-06-01T05:43:37;0.60;;;0.60;;
18383;SDS011;9318;48.644;9.456;2023-06-01T05:46:06;0.50;;;0.50;;
18383;SDS011;9318;48.644;9.456;2023-06-01T05:48:33;0.60;;;0.60;;
18383;SDS011;9318;48.644;9.456;2023-06-01T05:50:59;0.70;;;0.70;;
18383;SDS011;9318;48.644;9.456;2023-06-01T05:53:26;0.60;;;0.60;;
18383;SDS011;9318;48.644;9.456;2023-06-01T05:55:54;0.60;;;0.60;;
18383;SDS011;9318;48.644;9.456;2023-06-01T05:58:21;0.60;;;0.60;;
18383;SDS011;9318;48.644;9.456;2023-06-01T06:00:48;0.60;;;0.60;;
18383;SDS011;9318;48.644;9.456;2023-06-01T06:03:16;0.60;;;0.60;;
18383;SDS011;9318;48.644;9.456;2023-06-01T06:05:43;0.50;;;0.50;;
18383;SDS011;9318;48.644;9.456;2023-06-01T06:08:10;0.50;;;0.50;;
18383;SDS011;9318;48.644;9.456;2023-06-01T06:10:37;0.50;;;0.50;;
18383;SDS011;9318;48.644;9.456;2023-06-01T06:13:03;0.50;;;0.50;;
18383;SDS011;9318;48.644;9.456;2023-06-01T06:15:30;0.50;;;0.50;;
18383;SDS011;9318;48.644;9.456;2023-06-01T06:17:57;0.50;;;0.50;;
18383;SDS011;9318;48.644;9.456;2023-06-01T06:20:25;0.60;;;0.60;;
18383;SDS011;9318;48.644;9.456;2023-06-01T06:22:52;0.50;;;0.50;;
18383;SDS011;9318;48.644;9.456;2023-06-01T06:25:19;0.35;;;0.35;;
18383;SDS011;9318;48.644;9.456;2023-06-01T06:27:46;0.40;;;0.40;;
18383;SDS011;9318;48.644;9.456;2023-06-01T06:30:13;0.40;;;0.40;;
18383;SDS011;9318;48.644;9.456;2023-06-01T06:32:41;0.50;;;0.50;;
18383;SDS011;9318;48.644;9.456;2023-06-01T06:35:08;0.40;;;0.40;;
18383;SDS011;9318;48.644;9.456;2023-06-01T06:37:39;0.40;;;0.40;;
18383;SDS011;9318;48.644;9.456;2023-06-01T06:40:07;0.40;;;0.40;;
18383;SDS011;9318;48.644;9.456;2023-06-01T06:42:34;0.40;;;0.40;;
18383;SDS011;9318;48.644;9.456;2023-06-01T06:45:01;0.50;;;0.50;;
18383;SDS011;9318;48.644;9.456;2023-06-01T06:47:30;0.40;;;0.40;;
18383;SDS011;9318;48.644;9.456;2023-06-01T06:49:56;0.30;;;0.30;;
18383;SDS011;9318;48.644;9.456;2023-06-01T06:52:23;0.40;;;0.40;;
18383;SDS011;9318;48.644;9.456;2023-06-01T06:54:51;0.30;;;0.30;;
18383;SDS011;9318;48.644;9.456;2023-06-01T06:57:18;0.40;;;0.40;;
18383;SDS011;9318;48.644;9.456;2023-06-01T06:59:44;0.40;;;0.40;;
18383;SDS011;9318;48.644;9.456;2023-06-01T07:02:11;0.30;;;0.30;;
18383;SDS011;9318;48.644;9.456;2023-06-01T07:04:38;0.40;;;0.40;;
18383;SDS011;9318;48.644;9.456;2023-06-01T07:07:05;0.40;;;0.40;;
18383;SDS011;9318;48.644;9.456;2023-06-01T07:09:32;0.30;;;0.30;;
18383;SDS011;9318;48.644;9.456;2023-06-01T07:12:00;0.30;;;0.30;;
18383;SDS011;9318;48.644;9.456;2023-06-01T07:14:27;0.30;;;0.30;;
18383;SDS011;9318;48.644;9.456;2023-06-01T07:16:54;0.30;;;0.30;;
18383;SDS011;9318;48.644;9.456;2023-06-01T07:19:20;0.30;;;0.30;;
18383;SDS011;9318;48.644;9.456;2023-06-01T07:21:47;0.40;;;0.40;;
18383;SDS011;9318;48.644;9.456;2023-06-01T07:24:16;0.30;;;0.30;;
18383;SDS011;9318;48.644;9.456;2023-06-01T07:26:44;0.40;;;0.40;;
18383;SDS011;9318;48.644;9.456;2023-06-01T07:29:12;0.40;;;0.40;;
18383;SDS011;9318;48.644;9.456;2023-06-01T07:31:40;0.38;;;0.38;;
18383;SDS011;9318;48.644;9.456;2023-06-01T07:34:06;0.35;;;0.35;;
18383;SDS011;9318;48.644;9.456;2023-06-01T07:36:33;0.40;;;0.40;;
18383;SDS011;9318;48.644;9.456;2023-06-01T07:39:02;0.40;;;0.40;;
18383;SDS011;9318;48.644;9.456;2023-06-01T07:41:31;0.40;;;0.40;;
18383;SDS011;9318;48.644;9.456;2023-06-01T07:43:57;0.40;;;0.40;;
18383;SDS011;9318;48.644;9.456;2023-06-01T07:46:26;0.40;;;0.40;;
18383;SDS011;9318;48.644;9.456;2023-06-01T07:48:53;0.30;;;0.30;;
18383;SDS011;9318;48.644;9.456;2023-06-01T07:51:20;0.40;;;0.40;;
18383;SDS011;9318;48.644;9.456;2023-06-01T07:53:47;0.30;;;0.30;;
18383;SDS011;9318;48.644;9.456;2023-06-01T07:56:14;0.30;;;0.30;;
18383;SDS011;9318;48.644;9.456;2023-06-01T07:58:40;0.40;;;0.40;;
18383;SDS011;9318;48.644;9.456;2023-06-01T08:01:09;0.38;;;0.38;;
18383;SDS011;9318;48.644;9.456;2023-06-01T08:03:37;0.30;;;0.30;;
18383;SDS011;9318;48.644;9.456;2023-06-01T08:06:08;0.30;;;0.30;;
18383;SDS011;9318;48.644;9.456;2023-06-01T08:08:36;0.25;;;0.25;;
18383;SDS011;9318;48.644;9.456;2023-06-01T08:11:03;0.40;;;0.40;;
18383;SDS011;9318;48.644;9.456;2023-06-01T08:13:30;0.30;;;0.30;;
18383;SDS011;9318;48.644;9.456;2023-06-01T08:16:00;0.30;;;0.30;;
18383;SDS011;9318;48.644;9.456;2023-06-01T08:18:27;0.30;;;0.30;;
18383;SDS011;9318;48.644;9.456;2023-06-01T08:20:55;0.30;;;0.30;;
18383;SDS011;9318;48.644;9.456;2023-06-01T08:23:22;0.25;;;0.25;;
18383;SDS011;9318;48.644;9.456;2023-06-01T08:25:48;0.30;;;0.30;;
18383;SDS011;9318;48.644;9.456;2023-06-01T08:28:15;0.30;;;0.30;;
18383;SDS011;9318;48.644;9.456;2023-06-01T08:30:42;0.30;;;0.30;;
18383;SDS011;9318;48.644;9.456;2023-06-01T08:33:09;0.30;;;0.30;;
18383;SDS011;9318;48.644;9.456;2023-06-01T08:35:35;0.30;;;0.30;;
18383;SDS011;9318;48.644;9.456;2023-06-01T08:38:03;0.30;;;0.30;;
18383;SDS011;9318;48.644;9.456;2023-06-01T08:40:30;0.30;;;0.30;;
18383;SDS011;9318;48.644;9.456;2023-06-01T08:42:59;0.25;;;0.25;;
18383;SDS011;9318;48.644;9.456;2023-06-01T08:45:31;0.20;;;0.20;;
18383;SDS011;9318;48.644;9.456;2023-06-01T08:47:58;0.30;;;0.30;;
18383;SDS011;9318;48.644;9.456;2023-06-01T08:50:27;0.30;;;0.30;;
18383;SDS011;9318;48.644;9.456;2023-06-01T08:52:55;0.28;;;0.28;;
18383;SDS011;9318;48.644;9.456;2023-06-01T08:55:24;0.30;;;0.30;;
18383;SDS011;9318;48.644;9.456;2023-06-01T08:57:51;0.30;;;0.30;;
18383;SDS011;9318;48.644;9.456;2023-06-01T09:00:20;0.35;;;0.35;;
18383;SDS011;9318;48.644;9.456;2023-06-01T09:02:47;0.32;;;0.32;;
18383;SDS011;9318;48.644;9.456;2023-06-01T09:05:15;0.40;;;0.40;;
18383;SDS011;9318;48.644;9.456;2023-06-01T09:07:42;0.40;;;0.40;;
18383;SDS011;9318;48.644;9.456;2023-06-01T09:10:09;0.40;;;0.40;;
18383;SDS011;9318;48.644;9.456;2023-06-01T09:12:37;0.40;;;0.40;;
18383;SDS011;9318;48.644;9.456;2023-06-01T09:15:06;0.30;;;0.30;;
18383;SDS011;9318;48.644;9.456;2023-06-01T09:17:35;0.40;;;0.40;;
18383;SDS011;9318;48.644;9.456;2023-06-01T09:20:02;0.40;;;0.40;;
18383;SDS011;9318;48.644;9.456;2023-06-01T09:22:40;0.40;;;0.40;;
18383;SDS011;9318;48.644;9.456;2023-06-01T09:25:08;0.40;;;0.40;;
18383;SDS011;9318;48.644;9.456;2023-06-01T09:27:43;0.38;;;0.38;;
18383;SDS011;9318;48.644;9.456;2023-06-01T09:30:12;0.40;;;0.40;;
18383;SDS011;9318;48.644;9.456;2023-06-01T09:32:40;0.40;;;0.40;;
18383;SDS011;9318;48.644;9.456;2023-06-01T09:35:07;0.38;;;0.38;;
18383;SDS011;9318;48.644;9.456;2023-06-01T09:37:36;0.40;;;0.40;;
18383;SDS011;9318;48.644;9.456;2023-06-01T09:40:15;0.30;;;0.30;;
18383;SDS011;9318;48.644;9.456;2023-06-01T09:42:45;0.40;;;0.40;;
18383;SDS011;9318;48.644;9.456;2023-06-01T09:45:15;0.40;;;0.40;;
18383;SDS011;9318;48.644;9.456;2023-06-01T09:47:44;0.40;;;0.40;;
18383;SDS011;9318;48.644;9.456;2023-06-01T09:50:11;0.40;;;0.40;;
18383;SDS011;9318;48.644;9.456;2023-06-01T09:52:57;0.28;;;0.28;;
18383;SDS011;9318;48.644;9.456;2023-06-01T09:55:24;0.40;;;0.40;;
18383;SDS011;9318;48.644;9.456;2023-06-01T09:57:53;0.40;;;0.40;;
18383;SDS011;9318;48.644;9.456;2023-06-01T10:00:43;0.30;;;0.30;;
18383;SDS011;9318;48.644;9.456;2023-06-01T10:03:11;0.40;;;0.40;;
18383;SDS011;9318;48.644;9.456;2023-06-01T10:05:39;0.40;;;0.40;;
18383;SDS011;9318;48.644;9.456;2023-06-01T10:08:07;0.40;;;0.40;;
18383;SDS011;9318;48.644;9.456;2023-06-01T10:10:36;0.40;;;0.40;;
18383;SDS011;9318;48.644;9.456;2023-06-01T10:13:05;0.40;;;0.40;;
18383;SDS011;9318;48.644;9.456;2023-06-01T10:15:32;0.43;;;0.43;;
18383;SDS011;9318;48.644;9.456;2023-06-01T10:17:59;0.40;;;0.40;;
18383;SDS011;9318;48.644;9.456;2023-06-01T10:20:27;0.30;;;0.30;;
18383;SDS011;9318;48.644;9.456;2023-06-01T10:22:55;0.40;;;0.40;;
18383;SDS011;9318;48.644;9.456;2023-06-01T10:25:22;0.40;;;0.40;;
18383;SDS011;9318;48.644;9.456;2023-06-01T10:27:52;0.40;;;0.40;;
18383;SDS011;9318;48.644;9.456;2023-06-01T10:30:24;0.40;;;0.40;;
18383;SDS011;9318;48.644;9.456;2023-06-01T10:32:51;0.50;;;0.50;;
18383;SDS011;9318;48.644;9.456;2023-06-01T10:38:30;0.40;;;0.40;;
18383;SDS011;9318;48.644;9.456;2023-06-01T10:43:53;0.40;;;0.40;;
18383;SDS011;9318;48.644;9.456;2023-06-01T10:46:40;0.40;;;0.40;;
18383;SDS011;9318;48.644;9.456;2023-06-01T10:49:08;0.40;;;0.40;;
18383;SDS011;9318;48.644;9.456;2023-06-01T10:51:35;0.40;;;0.40;;
18383;SDS011;9318;48.644;9.456;2023-06-01T11:02:46;0.30;;;0.30;;
18383;SDS011;9318;48.644;9.456;2023-06-01T11:08:00;0.38;;;0.38;;
18383;SDS011;9318;48.644;9.456;2023-06-01T11:13:23;0.40;;;0.40;;
18383;SDS011;9318;48.644;9.456;2023-06-01T11:18:57;0.40;;;0.40;;
18383;SDS011;9318;48.644;9.456;2023-06-01T11:21:24;0.40;;;0.40;;
18383;SDS011;9318;48.644;9.456;2023-06-01T11:23:52;0.40;;;0.40;;
18383;SDS011;9318;48.644;9.456;2023-06-01T11:26:21;0.30;;;0.30;;
18383;SDS011;9318;48.644;9.456;2023-06-01T11:28:50;0.30;;;0.30;;
18383;SDS011;9318;48.644;9.456;2023-06-01T11:31:18;0.40;;;0.40;;
18383;SDS011;9318;48.644;9.456;2023-06-01T11:33:47;0.40;;;0.40;;
18383;SDS011;9318;48.644;9.456;2023-06-01T11:36:19;0.40;;;0.40;;
18383;SDS011;9318;48.644;9.456;2023-06-01T11:38:49;0.40;;;0.40;;
18383;SDS011;9318;48.644;9.456;2023-06-01T11:41:18;0.40;;;0.40;;
18383;SDS011;9318;48.644;9.456;2023-06-01T11:43:53;0.40;;;0.40;;
18383;SDS011;9318;48.644;9.456;2023-06-01T11:46:20;0.30;;;0.30;;
18383;SDS011;9318;48.644;9.456;2023-06-01T11:48:57;0.30;;;0.30;;
18383;SDS011;9318;48.644;9.456;2023-06-01T11:51:27;0.30;;;0.30;;
18383;SDS011;9318;48.644;9.456;2023-06-01T11:53:55;0.30;;;0.30;;
18383;SDS011;9318;48.644;9.456;2023-06-01T11:56:27;0.40;;;0.40;;
18383;SDS011;9318;48.644;9.456;2023-06-01T11:58:56;0.35;;;0.35;;
18383;SDS011;9318;48.644;9.456;2023-06-01T12:01:24;0.35;;;0.35;;
18383;SDS011;9318;48.644;9.456;2023-06-01T12:03:51;0.40;;;0.40;;
18383;SDS011;9318;48.644;9.456;2023-06-01T12:06:19;0.30;;;0.30;;
18383;SDS011;9318;48.644;9.456;2023-06-01T12:08:48;0.38;;;0.38;;
18383;SDS011;9318;48.644;9.456;2023-06-01T12:11:17;0.40;;;0.40;;
18383;SDS011;9318;48.644;9.456;2023-06-01T12:13:46;0.40;;;0.40;;
18383;SDS011;9318;48.644;9.456;2023-06-01T12:16:14;0.40;;;0.40;;
18383;SDS011;9318;48.644;9.456;2023-06-01T12:18:41;0.40;;;0.40;;
18383;SDS011;9318;48.644;9.456;2023-06-01T12:21:09;0.40;;;0.40;;
18383;SDS011;9318;48.644;9.456;2023-06-01T12:23:36;0.30;;;0.30;;
18383;SDS011;9318;48.644;9.456;2023-06-01T12:26:04;0.40;;;0.40;;
18383;SDS011;9318;48.644;9.456;2023-06-01T12:28:46;0.30;;;0.30;;
18383;SDS011;9318;48.644;9.456;2023-06-01T12:31:15;0.35;;;0.35;;
18383;SDS011;9318;48.644;9.456;2023-06-01T12:33:43;0.30;;;0.30;;
18383;SDS011;9318;48.644;9.456;2023-06-01T12:36:11;0.35;;;0.35;;
18383;SDS011;9318;48.644;9.456;2023-06-01T12:38:54;0.30;;;0.30;;
18383;SDS011;9318;48.644;9.456;2023-06-01T12:41:23;0.30;;;0.30;;
18383;SDS011;9318;48.644;9.456;2023-06-01T12:43:50;0.40;;;0.40;;
18383;SDS011;9318;48.644;9.456;2023-06-01T12:46:17;0.40;;;0.40;;
18383;SDS011;9318;48.644;9.456;2023-06-01T12:48:45;0.38;;;0.38;;
18383;SDS011;9318;48.644;9.456;2023-06-01T12:51:12;0.40;;;0.40;;
18383;SDS011;9318;48.644;9.456;2023-06-01T12:53:39;0.40;;;0.40;;
18383;SDS011;9318;48.644;9.456;2023-06-01T12:56:07;0.40;;;0.40;;
18383;SDS011;9318;48.644;9.456;2023-06-01T12:58:35;0.38;;;0.38;;
18383;SDS011;9318;48.644;9.456;2023-06-01T13:01:02;0.40;;;0.40;;
18383;SDS011;9318;48.644;9.456;2023-06-01T13:03:30;0.38;;;0.38;;
18383;SDS011;9318;48.644;9.456;2023-06-01T13:05:57;0.30;;;0.30;;
18383;SDS011;9318;48.644;9.456;2023-06-01T13:08:25;0.40;;;0.40;;
18383;SDS011;9318;48.644;9.456;2023-06-01T13:10:52;0.40;;;0.40;;
18383;SDS011;9318;48.644;9.456;2023-06-01T13:13:19;0.40;;;0.40;;
18383;SDS011;9318;48.644;9.456;2023-06-01T13:15:47;0.40;;;0.40;;
18383;SDS011;9318;48.644;9.456;2023-06-01T13:18:15;0.40;;;0.40;;
18383;SDS011;9318;48.644;9.456;2023-06-01T13:20:42;0.40;;;0.40;;
18383;SDS011;9318;48.644;9.456;2023-06-01T13:23:08;0.35;;;0.35;;
18383;SDS011;9318;48.644;9.456;2023-06-01T13:25:36;0.30;;;0.30;;
18383;SDS011;9318;48.644;9.456;2023-06-01T13:28:03;0.40;;;0.40;;
18383;SDS011;9318;48.644;9.456;2023-06-01T13:30:32;0.30;;;0.30;;
18383;SDS011;9318;48.644;9.456;2023-06-01T13:33:00;0.40;;;0.40;;
18383;SDS011;9318;48.644;9.456;2023-06-01T13:35:27;0.30;;;0.30;;
18383;SDS011;9318;48.644;9.456;2023-06-01T13:37:54;0.40;;;0.40;;
18383;SDS011;9318;48.644;9.456;2023-06-01T13:40:21;0.35;;;0.35;;
18383;SDS011;9318;48.644;9.456;2023-06-01T13:42:49;0.40;;;0.40;;
18383;SDS011;9318;48.644;9.456;2023-06-01T13:45:16;0.32;;;0.32;;
18383;SDS011;9318;48.644;9.456;2023-06-01T13:47:43;0.40;;;0.40;;
18383;SDS011;9318;48.644;9.456;2023-06-01T13:50:12;0.38;;;0.38;;
18383;SDS011;9318;48.644;9.456;2023-06-01T13:52:39;0.32;;;0.32;;
18383;SDS011;9318;48.644;9.456;2023-06-01T13:55:07;0.32;;;0.32;;
18383;SDS011;9318;48.644;9.456;2023-06-01T13:57:34;0.40;;;0.40;;
18383;SDS011;9318;48.644;9.456;2023-06-01T14:00:03;0.38;;;0.38;;
18383;SDS011;9318;48.644;9.456;2023-06-01T14:02:31;0.30;;;0.30;;
18383;SDS011;9318;48.644;9.456;2023-06-01T14:04:58;0.40;;;0.40;;
18383;SDS011;9318;48.644;9.456;2023-06-01T14:07:26;0.40;;;0.40;;
18383;SDS011;9318;48.644;9.456;2023-06-01T14:09:53;0.35;;;0.35;;
18383;SDS011;9318;48.644;9.456;2023-06-01T14:12:20;0.40;;;0.40;;
18383;SDS011;9318;48.644;9.456;2023-06-01T14:14:47;0.40;;;0.40;;
18383;SDS011;9318;48.644;9.456;2023-06-01T14:17:14;0.40;;;0.40;;
18383;SDS011;9318;48.644;9.456;2023-06-01T14:19:40;0.40;;;0.40;;
18383;SDS011;9318;48.644;9.456;2023-06-01T14:22:07;0.30;;;0.30;;
18383;SDS011;9318;48.644;9.456;2023-06-01T14:24:35;0.40;;;0.40;;
18383;SDS011;9318;48.644;9.456;2023-06-01T14:27:02;0.40;;;0.40;;
18383;SDS011;9318;48.644;9.456;2023-06-01T14:29:29;0.40;;;0.40;;
18383;SDS011;9318;48.644;9.456;2023-06-01T14:31:55;0.40;;;0.40;;
18383;SDS011;9318;48.644;9.456;2023-06-01T14:34:22;0.40;;;0.40;;
18383;SDS011;9318;48.644;9.456;2023-06-01T14:36:49;0.40;;;0.40;;
18383;SDS011;9318;48.644;9.456;2023-06-01T14:39:16;0.40;;;0.40;;
18383;SDS011;9318;48.644;9.456;2023-06-01T14:41:44;0.40;;;0.40;;
18383;SDS011;9318;48.644;9.456;2023-06-01T14:44:11;0.30;;;0.30;;
18383;SDS011;9318;48.644;9.456;2023-06-01T14:46:38;0.40;;;0.40;;
18383;SDS011;9318;48.644;9.456;2023-06-01T14:49:05;0.35;;;0.35;;
18383;SDS011;9318;48.644;9.456;2023-06-01T14:51:32;0.40;;;0.40;;
18383;SDS011;9318;48.644;9.456;2023-06-01T14:53:59;0.35;;;0.35;;
18383;SDS011;9318;48.644;9.456;2023-06-01T14:56:26;0.30;;;0.30;;
18383;SDS011;9318;48.644;9.456;2023-06-01T14:58:54;0.40;;;0.40;;
18383;SDS011;9318;48.644;9.456;2023-06-01T15:01:21;0.35;;;0.35;;
18383;SDS011;9318;48.644;9.456;2023-06-01T15:03:49;0.40;;;0.40;;
18383;SDS011;9318;48.644;9.456;2023-06-01T15:06:15;0.30;;;0.30;;
18383;SDS011;9318;48.644;9.456;2023-06-01T15:08:42;0.40;;;0.40;;
18383;SDS011;9318;48.644;9.456;2023-06-01T15:11:09;0.40;;;0.40;;
18383;SDS011;9318;48.644;9.456;2023-06-01T15:13:36;0.40;;;0.40;;
18383;SDS011;9318;48.644;9.456;2023-06-01T15:16:05;0.40;;;0.40;;
18383;SDS011;9318;48.644;9.456;2023-06-01T15:18:32;0.50;;;0.50;;
18383;SDS011;9318;48.644;9.456;2023-06-01T15:20:59;0.38;;;0.38;;
18383;SDS011;9318;48.644;9.456;2023-06-01T15:23:26;0.40;;;0.40;;
18383;SDS011;9318;48.644;9.456;2023-06-01T15:25:53;0.30;;;0.30;;
18383;SDS011;9318;48.644;9.456;2023-06-01T15:28:20;0.40;;;0.40;;
18383;SDS011;9318;48.644;9.456;2023-06-01T15:30:47;0.35;;;0.35;;